• Join FlightAware (Why Join?)
  • Login
  • US Flag 
07:38AM EDT


 

Airport Tracker/Info


-or-


 

Live Flight TrackerFlight Track Log ✈ SKW4540 ✈ 24-Aug-2013 ✈ KMSO - KSLC

Flight Track Log - Related Links

Times and Time Zones

All times are in EDT time to prevent confusion due to time zone crossing. See the SKW4540 flight status page for this flight to view local times or setup timezone preferences in your user account.

Time Position Orientation Groundspeed Altitude Reporting Facility
EDT Latitude Longitude Course Direction KTS MPH feet Rate Location/Type
01:54PM 47.0189 -114.2939 301° West 239 275 9,100  Level Salt Lake Center
01:55PM 46.6684 -113.9958 180° South  Level Estimated
01:55PM 46.9717 -114.3522 220° Southwest 254 292 10,900  Level Salt Lake Center
01:56PM 46.5923 -114.0521 207° Southwest  Level FlightAware Approximate
01:57PM 46.5098 -114.0196 180° South  Level Estimated
01:57PM 46.8886 -114.3389 174° South 284 327 12,600  Level Salt Lake Center
01:58PM 46.4291 -114.0603 199° South  Level FlightAware Approximate
01:58PM 46.8047 -114.3283 175° South 303 349 14,500  Level Salt Lake Center
01:59PM 46.3469 -114.0268 180° South  Level Estimated
01:59PM 46.7136 -114.3147 174° South 307 353 16,600  Level Salt Lake Center
02:00PM 46.6269 -114.3031 175° South 313 360 18,300 1,440 Climbing Salt Lake Center
02:01PM 46.5364 -114.2908 175° South 327 376 19,700 1,200 Climbing Salt Lake Center
02:02PM 46.4547 -114.2792 174° South 328 377 20,900 1,380 Climbing Salt Lake Center
02:03PM 46.3411 -114.2639 175° South 340 391 22,600 1,320 Climbing Salt Lake Center
02:04PM 46.2461 -114.2489 174° South 343 395 23,700 960 Climbing Salt Lake Center
02:05PM 46.1478 -114.2369 175° South 356 410 24,700 960 Climbing Salt Lake Center
02:06PM 46.0483 -114.2214 174° South 360 414 25,700 900 Climbing Salt Lake Center
02:07PM 45.9481 -114.2086 175° South 361 415 26,600 780 Climbing Salt Lake Center
02:08PM 45.8469 -114.1953 175° South 364 419 27,400 780 Climbing Salt Lake Center
02:09PM 45.7228 -114.1794 175° South 371 427 28,300 660 Climbing Salt Lake Center
02:10PM 45.6189 -114.1642 174° South 375 432 28,800 480 Climbing Salt Lake Center
02:11PM 45.5142 -114.1497 174° South 380 437 29,300 480 Climbing Salt Lake Center
02:12PM 45.3933 -114.1342 175° South 388 447 29,900 300 Climbing Salt Lake Center
02:13PM 45.2894 -114.1203 175° South 392 451 30,000  Climbing Salt Lake Center
02:14PM 45.1658 -114.1036 175° South 398 458 30,000  Level Salt Lake Center
02:15PM 45.0619 -114.0897 175° South 395 455 30,000  Level Salt Lake Center
02:16PM 44.9467 -114.0317 160° South 401 461 30,000  Level Salt Lake Center
02:17PM 44.8500 -113.9672 155° Southeast 403 464 30,000 300 Level Salt Lake Center
02:18PM 44.7411 -113.8911 154° Southeast 397 457 30,700 480 Climbing Salt Lake Center
02:19PM 44.6467 -113.8264 154° Southeast 395 455 31,000 120 Climbing Salt Lake Center
02:20PM 44.5356 -113.7494 154° Southeast 396 456 31,000  Level Salt Lake Center
02:21PM 44.4364 -113.6831 154° Southeast 403 464 31,000  Level Salt Lake Center
02:22PM 44.3386 -113.6172 154° Southeast 406 467 31,000  Level Salt Lake Center
02:23PM 44.2244 -113.5389 154° Southeast 408 470 31,000  Level Salt Lake Center
02:24PM 44.1247 -113.4728 155° Southeast 410 472 31,000  Level Salt Lake Center
02:25PM 44.0103 -113.3961 154° Southeast 409 471 31,000  Level Salt Lake Center
02:26PM 43.9133 -113.3317 154° Southeast 406 467 31,000  Level Salt Lake Center
02:28PM 43.8003 -113.2564 154° Southeast 404 465 31,000  Level Salt Lake Center
02:29PM 43.7039 -113.1933 155° Southeast 402 463 31,000  Level Salt Lake Center
02:30PM 43.5922 -113.1211 155° Southeast 399 459 31,000  Level Salt Lake Center
02:31PM 43.4969 -113.0564 154° Southeast 399 459 31,000  Level Salt Lake Center
02:32PM 43.3853 -112.9831 154° Southeast 398 458 31,000  Level Salt Lake Center
02:33PM 43.2903 -112.9217 155° Southeast 396 456 31,000  Level Salt Lake Center
02:34PM 43.1803 -112.8522 155° Southeast 391 450 31,000  Level Salt Lake Center
02:35PM 43.0844 -112.7889 154° Southeast 396 456 31,000  Level Salt Lake Center
02:36PM 42.9894 -112.7283 155° Southeast 395 455 31,000  Level Salt Lake Center
02:37PM 42.8783 -112.6575 155° Southeast 395 455 31,000  Level Salt Lake Center
02:38PM 42.7800 -112.6242 166° South 381 438 31,000 -540 Level Salt Lake Center
02:39PM 42.6656 -112.5908 168° South 387 445 30,000 -540 Descending Salt Lake Center
02:40PM 42.5603 -112.5592 168° South 389 448 30,000  Level Salt Lake Center
02:41PM 42.4547 -112.5283 168° South 389 448 30,000  Level Salt Lake Center
02:42PM 42.3489 -112.4956 167° South 390 449 30,000  Level Salt Lake Center
02:43PM 42.2439 -112.4633 167° South 389 448 30,000  Level Salt Lake Center
02:44PM 42.1167 -112.4556 177° South 383 441 30,000 -1,260 Level Salt Lake Center
02:45PM 42.0108 -112.4628 183° South 381 438 27,500 -2,760 Descending Salt Lake Center
02:46PM 41.9058 -112.4681 182° South 379 436 24,400 -2,880 Descending Salt Lake Center
02:47PM 41.8031 -112.4750 183° South 375 432 21,600 -2,640 Descending Salt Lake Center
02:48PM 41.7036 -112.4803 182° South 363 418 19,000 -2,460 Descending Salt Lake Center
02:49PM 41.5750 -112.4828 181° South 347 399 16,000 -1,560 Descending Salt Lake Center
02:50PM 41.5164 -112.4683 170° South 321 369 16,000 -300 Level Salt Lake Center
02:51PM 41.4503 -112.3931 140° Southeast 316 364 15,500 -840 Descending Salt Lake Center
02:52PM 41.3875 -112.3000 132° Southeast 311 358 14,400 -1,080 Descending Salt Lake Center
02:53PM 41.3306 -112.2167 132° Southeast 305 351 13,400 -900 Descending Salt Lake Center
02:54PM 41.2761 -112.1353 132° Southeast 299 344 12,600 -960 Descending Salt Lake Center
02:55PM 41.2147 -112.0531 135° Southeast 304 350 11,400 -1,020 Descending Salt Lake Center
02:56PM 41.1497 -112.0158 157° South 294 338 10,700 -1,200 Descending Salt Lake Center
02:57PM 41.0706 -112.0086 176° South 288 331 9,300 -1,140 Descending Salt Lake Center
02:58PM 41.0003 -112.0014 176° South 244 281 8,500 -1,140 Descending Salt Lake Center
02:59PM 40.9361 -111.9919 174° South 219 252 7,000 -1,380 Descending Salt Lake Center
03:00PM 40.8900 -111.9992 187° South 166 191 5,700 -1,020 Descending Salt Lake Center
03:01PM 40.8483 -112.0050 186° South 148 170 5,000 -660 Descending Salt Lake Center
03:03PM 40.7958 -111.9978 174° South 140 161 4,200 -600 Descending Salt Lake Center